AAL1337 KMIA-KLGA
Flight info
| Callsign | AAL1337 |
|---|---|
| Flight time | N/A |
| Altitude | 35000 |
| Route | ALTNN2 DUCEN Q87 HURTS PROUD2 |
| Aircraft | A321/M-SDE3FGHIRWY/LB1 |
Departure
| Time | 2026-05-06 15:17 |
|---|---|
| Airport | Miami International Airport (KMIA) |
Arrival
| Time | N/A |
|---|---|
| Airport | LaGuardia Airport (KLGA) |
| Time | Latitude | Longitude | Altitude | Speed | Heading |
|---|---|---|---|---|---|
| 2026-05-06 14:19 | 25.79732 | -80.28354 | 15 ft | 0 kts | 357° |
| 2026-05-06 15:04 | 25.79717 | -80.28353 | 16 ft | 3 kts | 351° |
| 2026-05-06 15:05 | 25.79698 | -80.28349 | 17 ft | 3 kts | 336° |
| 2026-05-06 15:05 | 25.79681 | -80.28338 | 19 ft | 3 kts | 307° |
| 2026-05-06 15:05 | 25.79674 | -80.28323 | 15 ft | 2 kts | 270° |
| 2026-05-06 15:05 | 25.79674 | -80.28320 | 15 ft | 0 kts | 267° |
| 2026-05-06 15:09 | 25.79674 | -80.28324 | 15 ft | 1 kts | 267° |
| 2026-05-06 15:09 | 25.79673 | -80.28338 | 15 ft | 2 kts | 267° |
| 2026-05-06 15:10 | 25.79672 | -80.28359 | 15 ft | 3 kts | 266° |
| 2026-05-06 15:10 | 25.79671 | -80.28389 | 15 ft | 5 kts | 268° |
| 2026-05-06 15:10 | 25.79670 | -80.28433 | 15 ft | 7 kts | 267° |
| 2026-05-06 15:10 | 25.79666 | -80.28497 | 15 ft | 10 kts | 264° |
| 2026-05-06 15:11 | 25.79653 | -80.28573 | 15 ft | 10 kts | 263° |
| 2026-05-06 15:11 | 25.79649 | -80.28655 | 15 ft | 11 kts | 265° |
| 2026-05-06 15:11 | 25.79641 | -80.28744 | 15 ft | 12 kts | 268° |
| 2026-05-06 15:11 | 25.79646 | -80.28836 | 15 ft | 13 kts | 275° |
| 2026-05-06 15:12 | 25.79694 | -80.28904 | 15 ft | 12 kts | 348° |
| 2026-05-06 15:12 | 25.79780 | -80.28910 | 15 ft | 13 kts | 357° |
| 2026-05-06 15:12 | 25.79870 | -80.28915 | 15 ft | 13 kts | 357° |
| 2026-05-06 15:12 | 25.79961 | -80.28920 | 16 ft | 11 kts | 357° |
| 2026-05-06 15:13 | 25.80008 | -80.28973 | 17 ft | 10 kts | 276° |
| 2026-05-06 15:13 | 25.80005 | -80.29056 | 16 ft | 11 kts | 267° |
| 2026-05-06 15:13 | 25.80002 | -80.29145 | 16 ft | 12 kts | 268° |
| 2026-05-06 15:13 | 25.79998 | -80.29239 | 16 ft | 13 kts | 266° |
| 2026-05-06 15:14 | 25.79993 | -80.29341 | 15 ft | 14 kts | 266° |
| 2026-05-06 15:14 | 25.79989 | -80.29454 | 14 ft | 15 kts | 271° |
| 2026-05-06 15:14 | 25.79984 | -80.29574 | 14 ft | 16 kts | 267° |
| 2026-05-06 15:14 | 25.79979 | -80.29697 | 14 ft | 16 kts | 266° |
| 2026-05-06 15:15 | 25.79973 | -80.29827 | 14 ft | 17 kts | 267° |
| 2026-05-06 15:15 | 25.79968 | -80.29963 | 13 ft | 18 kts | 267° |
| 2026-05-06 15:15 | 25.79983 | -80.30091 | 16 ft | 10 kts | 294° |
| 2026-05-06 15:15 | 25.80038 | -80.30130 | 14 ft | 10 kts | 353° |
| 2026-05-06 15:16 | 25.80073 | -80.30081 | 14 ft | 10 kts | 85° |
| 2026-05-06 15:16 | 25.80079 | -80.29927 | 13 ft | 47 kts | 87° |
| 2026-05-06 15:16 | 25.80104 | -80.29302 | 16 ft | 113 kts | 87° |
| 2026-05-06 15:16 | 25.80151 | -80.28229 | 17 ft | 163 kts | 87° |
| 2026-05-06 15:17 | 25.80216 | -80.26932 | 511 ft | 166 kts | 86° |
| 2026-05-06 15:17 | 25.80308 | -80.25640 | 1090 ft | 167 kts | 85° |
| 2026-05-06 15:17 | 25.80386 | -80.24357 | 1741 ft | 166 kts | 87° |
| 2026-05-06 15:17 | 25.80445 | -80.23043 | 2150 ft | 179 kts | 88° |
| 2026-05-06 15:18 | 25.80497 | -80.21577 | 2358 ft | 200 kts | 88° |
| 2026-05-06 15:18 | 25.80545 | -80.19966 | 2622 ft | 217 kts | 88° |
| 2026-05-06 15:18 | 25.80596 | -80.18223 | 2869 ft | 238 kts | 85° |
| 2026-05-06 15:18 | 25.81217 | -80.16456 | 3120 ft | 258 kts | 48° |
| 2026-05-06 15:19 | 25.82714 | -80.15398 | 3676 ft | 266 kts | 15° |
| 2026-05-06 15:19 | 25.84560 | -80.15143 | 4354 ft | 270 kts | 0° |
| 2026-05-06 15:19 | 25.86447 | -80.15218 | 5087 ft | 273 kts | 356° |
| 2026-05-06 15:19 | 25.88348 | -80.15363 | 5793 ft | 275 kts | 355° |
| 2026-05-06 15:20 | 25.90215 | -80.15828 | 6537 ft | 277 kts | 338° |
| 2026-05-06 15:20 | 25.92003 | -80.16625 | 7225 ft | 278 kts | 340° |
| 2026-05-06 15:20 | 25.93835 | -80.17331 | 7883 ft | 280 kts | 342° |
| 2026-05-06 15:20 | 25.95696 | -80.17985 | 8550 ft | 281 kts | 343° |
| 2026-05-06 15:21 | 25.97570 | -80.18623 | 9234 ft | 282 kts | 343° |
| 2026-05-06 15:21 | 25.99481 | -80.19113 | 9891 ft | 283 kts | 355° |
| 2026-05-06 15:21 | 26.01463 | -80.19294 | 10309 ft | 293 kts | 355° |
| 2026-05-06 15:21 | 26.03573 | -80.19494 | 10421 ft | 313 kts | 355° |
| 2026-05-06 15:22 | 26.05811 | -80.19719 | 10549 ft | 332 kts | 355° |
| 2026-05-06 15:22 | 26.08167 | -80.19964 | 10697 ft | 347 kts | 355° |
| 2026-05-06 15:22 | 26.10599 | -80.20220 | 11132 ft | 353 kts | 354° |
| 2026-05-06 15:22 | 26.13051 | -80.20478 | 11643 ft | 355 kts | 354° |
| 2026-05-06 15:23 | 26.15525 | -80.20736 | 12190 ft | 358 kts | 354° |
| 2026-05-06 15:23 | 26.18011 | -80.20993 | 12747 ft | 359 kts | 354° |
| 2026-05-06 15:23 | 26.20509 | -80.21250 | 13291 ft | 362 kts | 355° |
| 2026-05-06 15:23 | 26.23021 | -80.21490 | 13846 ft | 364 kts | 355° |
| 2026-05-06 15:24 | 26.25550 | -80.21714 | 14322 ft | 365 kts | 355° |
| 2026-05-06 15:24 | 26.28091 | -80.21932 | 14802 ft | 367 kts | 355° |
| 2026-05-06 15:24 | 26.28806 | -80.21994 | 14935 ft | 368 kts | 355° |
| 2026-05-06 15:24 | 26.31363 | -80.22215 | 15424 ft | 370 kts | 355° |
| 2026-05-06 15:25 | 26.33932 | -80.22440 | 15907 ft | 371 kts | 354° |
| 2026-05-06 15:25 | 26.36513 | -80.22667 | 16374 ft | 373 kts | 354° |
| 2026-05-06 15:25 | 26.39108 | -80.22903 | 16851 ft | 375 kts | 354° |
| 2026-05-06 15:25 | 26.41715 | -80.23161 | 17316 ft | 377 kts | 353° |
| 2026-05-06 15:26 | 26.44338 | -80.23435 | 17773 ft | 379 kts | 353° |
| 2026-05-06 15:26 | 26.46940 | -80.23712 | 18236 ft | 381 kts | 353° |
| 2026-05-06 15:26 | 26.49588 | -80.23992 | 18639 ft | 383 kts | 353° |
| 2026-05-06 15:26 | 26.52249 | -80.24271 | 19025 ft | 386 kts | 353° |
| 2026-05-06 15:27 | 26.54939 | -80.24549 | 19393 ft | 388 kts | 353° |
| 2026-05-06 15:27 | 26.57635 | -80.24853 | 19775 ft | 390 kts | 351° |
| 2026-05-06 15:27 | 26.60333 | -80.25250 | 20141 ft | 393 kts | 350° |
| 2026-05-06 15:27 | 26.63044 | -80.25711 | 20512 ft | 395 kts | 349° |
| 2026-05-06 15:28 | 26.64846 | -80.26033 | 20749 ft | 396 kts | 349° |
| 2026-05-06 15:28 | 26.67576 | -80.26527 | 21099 ft | 398 kts | 349° |
| 2026-05-06 15:28 | 26.70311 | -80.27071 | 21438 ft | 400 kts | 345° |
| 2026-05-06 15:28 | 26.72954 | -80.28040 | 21763 ft | 401 kts | 338° |
| 2026-05-06 15:29 | 26.75572 | -80.29145 | 22104 ft | 403 kts | 338° |
| 2026-05-06 15:29 | 26.78204 | -80.30244 | 22432 ft | 405 kts | 338° |
| 2026-05-06 15:29 | 26.80851 | -80.31345 | 22762 ft | 407 kts | 338° |
| 2026-05-06 15:29 | 26.83515 | -80.32454 | 23085 ft | 409 kts | 338° |
| 2026-05-06 15:30 | 26.86189 | -80.33570 | 23414 ft | 411 kts | 338° |
| 2026-05-06 15:30 | 26.88878 | -80.34696 | 23720 ft | 413 kts | 338° |
| 2026-05-06 15:30 | 26.91581 | -80.35830 | 23995 ft | 415 kts | 338° |
| 2026-05-06 15:30 | 26.94288 | -80.36965 | 24292 ft | 416 kts | 338° |
| 2026-05-06 15:31 | 26.96974 | -80.38073 | 24600 ft | 417 kts | 338° |
| 2026-05-06 15:31 | 26.99707 | -80.39177 | 24901 ft | 418 kts | 339° |
| 2026-05-06 15:31 | 27.02453 | -80.40277 | 25214 ft | 419 kts | 339° |
| 2026-05-06 15:32 | 27.07960 | -80.42477 | 25831 ft | 420 kts | 338° |
| 2026-05-06 15:32 | 27.10717 | -80.43595 | 26143 ft | 421 kts | 338° |
| 2026-05-06 15:32 | 27.13464 | -80.44770 | 26434 ft | 422 kts | 336° |
| 2026-05-06 15:32 | 27.16194 | -80.45982 | 26721 ft | 423 kts | 336° |
| 2026-05-06 15:33 | 27.18929 | -80.47217 | 27001 ft | 424 kts | 336° |
| 2026-05-06 15:33 | 27.21669 | -80.48456 | 27294 ft | 425 kts | 336° |
| 2026-05-06 15:33 | 27.24386 | -80.49678 | 27579 ft | 426 kts | 336° |
| 2026-05-06 15:33 | 27.27142 | -80.50907 | 27877 ft | 427 kts | 336° |
| 2026-05-06 15:34 | 27.29910 | -80.52136 | 28174 ft | 428 kts | 336° |
| 2026-05-06 15:34 | 27.32687 | -80.53364 | 28467 ft | 429 kts | 336° |
| 2026-05-06 15:34 | 27.35471 | -80.54592 | 28749 ft | 431 kts | 336° |
| 2026-05-06 15:34 | 27.38265 | -80.55807 | 29088 ft | 430 kts | 336° |
| 2026-05-06 15:35 | 27.41072 | -80.56959 | 29505 ft | 428 kts | 337° |
| 2026-05-06 15:35 | 27.43887 | -80.58066 | 29920 ft | 426 kts | 338° |
| 2026-05-06 15:35 | 27.46687 | -80.59147 | 30299 ft | 425 kts | 338° |
| 2026-05-06 15:35 | 27.49478 | -80.60221 | 30621 ft | 423 kts | 338° |
| 2026-05-06 15:36 | 27.52226 | -80.61287 | 30928 ft | 422 kts | 337° |
| 2026-05-06 15:36 | 27.54998 | -80.62375 | 31227 ft | 421 kts | 337° |
| 2026-05-06 15:36 | 27.57760 | -80.63470 | 31538 ft | 421 kts | 337° |
| 2026-05-06 15:36 | 27.60514 | -80.64571 | 31834 ft | 420 kts | 336° |
| 2026-05-06 15:37 | 27.63263 | -80.65675 | 32143 ft | 419 kts | 336° |
| 2026-05-06 15:37 | 27.66006 | -80.66779 | 32446 ft | 418 kts | 336° |
| 2026-05-06 15:37 | 27.68748 | -80.67880 | 32748 ft | 417 kts | 336° |
| 2026-05-06 15:37 | 27.71486 | -80.68976 | 33035 ft | 417 kts | 336° |
| 2026-05-06 15:38 | 27.74219 | -80.70067 | 33324 ft | 416 kts | 336° |
| 2026-05-06 15:38 | 27.76948 | -80.71159 | 33618 ft | 415 kts | 336° |
| 2026-05-06 15:38 | 27.79665 | -80.72247 | 33904 ft | 414 kts | 336° |
| 2026-05-06 15:38 | 27.82377 | -80.73332 | 34173 ft | 413 kts | 336° |
| 2026-05-06 15:39 | 27.85089 | -80.74417 | 34416 ft | 413 kts | 336° |
| 2026-05-06 15:39 | 27.87760 | -80.75488 | 34656 ft | 412 kts | 336° |
| 2026-05-06 15:39 | 27.90458 | -80.76568 | 34892 ft | 411 kts | 336° |
| 2026-05-06 15:39 | 27.93158 | -80.77649 | 35069 ft | 411 kts | 336° |
| 2026-05-06 15:40 | 27.98547 | -80.79811 | 35132 ft | 410 kts | 336° |
| 2026-05-06 15:40 | 28.03934 | -80.81969 | 35125 ft | 410 kts | 336° |
| 2026-05-06 15:41 | 28.09314 | -80.84130 | 35131 ft | 410 kts | 336° |
| 2026-05-06 15:41 | 28.14685 | -80.86300 | 35133 ft | 410 kts | 335° |
| 2026-05-06 15:42 | 28.20028 | -80.88460 | 35130 ft | 410 kts | 335° |
| 2026-05-06 15:42 | 28.25404 | -80.90626 | 35115 ft | 410 kts | 336° |
| 2026-05-06 15:43 | 28.30784 | -80.92792 | 35131 ft | 410 kts | 335° |
| 2026-05-06 15:43 | 28.36165 | -80.94968 | 35142 ft | 410 kts | 335° |
| 2026-05-06 15:44 | 28.41547 | -80.97152 | 35156 ft | 410 kts | 335° |
| 2026-05-06 15:44 | 28.46897 | -80.99318 | 35152 ft | 410 kts | 335° |
| 2026-05-06 15:45 | 28.52282 | -81.01496 | 35153 ft | 410 kts | 335° |
| 2026-05-06 15:45 | 28.57663 | -81.03678 | 35164 ft | 410 kts | 335° |
| 2026-05-06 15:46 | 28.63034 | -81.05862 | 35148 ft | 410 kts | 335° |
| 2026-05-06 15:46 | 28.68406 | -81.08054 | 35143 ft | 410 kts | 335° |
| 2026-05-06 15:47 | 28.73769 | -81.10239 | 35148 ft | 409 kts | 335° |
| 2026-05-06 15:47 | 28.79091 | -81.12407 | 35153 ft | 408 kts | 335° |
| 2026-05-06 15:48 | 28.84436 | -81.14585 | 35152 ft | 408 kts | 335° |
| 2026-05-06 15:48 | 28.89782 | -81.16772 | 35151 ft | 408 kts | 335° |
| 2026-05-06 15:49 | 28.95127 | -81.18959 | 35165 ft | 407 kts | 335° |
| 2026-05-06 15:49 | 29.00464 | -81.21145 | 35174 ft | 407 kts | 335° |
| 2026-05-06 15:50 | 29.05796 | -81.23340 | 35174 ft | 407 kts | 335° |
| 2026-05-06 15:50 | 29.11092 | -81.25516 | 35175 ft | 406 kts | 335° |
| 2026-05-06 15:51 | 29.16422 | -81.27695 | 35173 ft | 406 kts | 335° |
| 2026-05-06 15:51 | 29.21742 | -81.29881 | 35169 ft | 406 kts | 334° |
| 2026-05-06 15:52 | 29.27086 | -81.31974 | 35161 ft | 410 kts | 341° |
| 2026-05-06 15:52 | 29.32837 | -81.32632 | 35153 ft | 419 kts | 349° |
| 2026-05-06 15:53 | 29.38656 | -81.32962 | 35154 ft | 419 kts | 349° |
| 2026-05-06 15:53 | 29.44478 | -81.33301 | 35153 ft | 418 kts | 349° |
| 2026-05-06 15:54 | 29.50255 | -81.33641 | 35155 ft | 418 kts | 349° |
| 2026-05-06 15:54 | 29.56061 | -81.33985 | 35154 ft | 418 kts | 349° |
| 2026-05-06 15:55 | 29.61871 | -81.34327 | 35154 ft | 418 kts | 349° |
| 2026-05-06 15:55 | 29.67672 | -81.34665 | 35156 ft | 417 kts | 349° |
| 2026-05-06 15:56 | 29.73478 | -81.35009 | 35158 ft | 417 kts | 349° |
| 2026-05-06 15:56 | 29.79272 | -81.35355 | 35164 ft | 417 kts | 349° |
| 2026-05-06 15:57 | 29.85069 | -81.35700 | 35164 ft | 417 kts | 349° |
| 2026-05-06 15:57 | 29.90824 | -81.36049 | 35165 ft | 417 kts | 349° |
| 2026-05-06 15:58 | 29.96614 | -81.36389 | 35161 ft | 416 kts | 349° |
| 2026-05-06 15:58 | 30.02406 | -81.36731 | 35162 ft | 416 kts | 349° |
| 2026-05-06 15:59 | 30.08194 | -81.37069 | 35160 ft | 416 kts | 349° |
| 2026-05-06 15:59 | 30.13976 | -81.37420 | 35160 ft | 416 kts | 349° |
| 2026-05-06 16:00 | 30.19726 | -81.37772 | 35153 ft | 416 kts | 349° |
| 2026-05-06 16:00 | 30.25518 | -81.38117 | 35153 ft | 416 kts | 348° |
| 2026-05-06 16:01 | 30.31300 | -81.38456 | 35170 ft | 414 kts | 349° |
| 2026-05-06 16:01 | 30.37057 | -81.38782 | 35118 ft | 413 kts | 348° |
| 2026-05-06 16:02 | 30.42760 | -81.39135 | 35127 ft | 413 kts | 348° |
| 2026-05-06 16:02 | 30.48500 | -81.39489 | 35129 ft | 413 kts | 348° |
| 2026-05-06 16:03 | 30.54244 | -81.39796 | 35144 ft | 413 kts | 349° |
| 2026-05-06 16:03 | 30.59992 | -81.40081 | 35150 ft | 413 kts | 349° |
| 2026-05-06 16:04 | 30.65735 | -81.40379 | 35163 ft | 413 kts | 348° |
| 2026-05-06 16:04 | 30.71472 | -81.40689 | 35158 ft | 413 kts | 348° |
| 2026-05-06 16:05 | 30.77213 | -81.40996 | 35159 ft | 413 kts | 348° |
| 2026-05-06 16:05 | 30.82948 | -81.41301 | 35150 ft | 412 kts | 348° |
| 2026-05-06 16:06 | 30.88639 | -81.41611 | 35141 ft | 412 kts | 348° |
| 2026-05-06 16:06 | 30.94366 | -81.41912 | 35140 ft | 412 kts | 348° |
| 2026-05-06 16:07 | 31.00089 | -81.42202 | 35147 ft | 411 kts | 348° |
| 2026-05-06 16:07 | 31.05810 | -81.42512 | 35148 ft | 411 kts | 348° |
| 2026-05-06 16:08 | 31.11531 | -81.42823 | 35157 ft | 412 kts | 348° |
| 2026-05-06 16:08 | 31.17263 | -81.43137 | 35160 ft | 412 kts | 348° |
| 2026-05-06 16:09 | 31.23006 | -81.43361 | 35158 ft | 418 kts | 354° |
| 2026-05-06 16:09 | 31.25932 | -81.42856 | 35156 ft | 432 kts | 5° |
| 2026-05-06 16:09 | 31.28813 | -81.41653 | 35158 ft | 447 kts | 14° |
| 2026-05-06 16:10 | 31.34421 | -81.38599 | 35159 ft | 448 kts | 14° |
| 2026-05-06 16:10 | 31.40067 | -81.35516 | 35155 ft | 448 kts | 14° |
| 2026-05-06 16:11 | 31.45714 | -81.32448 | 35148 ft | 448 kts | 14° |
| 2026-05-06 16:11 | 31.51368 | -81.29375 | 35143 ft | 448 kts | 14° |
| 2026-05-06 16:12 | 31.57029 | -81.26301 | 35133 ft | 448 kts | 14° |
| 2026-05-06 16:12 | 31.62687 | -81.23222 | 35128 ft | 448 kts | 14° |
| 2026-05-06 16:13 | 31.68308 | -81.20148 | 35127 ft | 448 kts | 14° |
| 2026-05-06 16:13 | 31.73960 | -81.17062 | 35123 ft | 448 kts | 14° |
| 2026-05-06 16:14 | 31.79613 | -81.13965 | 35124 ft | 448 kts | 14° |
| 2026-05-06 16:14 | 31.85262 | -81.10866 | 35121 ft | 447 kts | 14° |
| 2026-05-06 16:15 | 31.90904 | -81.07770 | 35126 ft | 447 kts | 14° |
| 2026-05-06 16:15 | 31.96541 | -81.04672 | 35124 ft | 447 kts | 14° |
| 2026-05-06 16:16 | 32.02173 | -81.01569 | 35127 ft | 447 kts | 15° |
| 2026-05-06 16:16 | 32.07789 | -80.98430 | 35125 ft | 447 kts | 15° |
| 2026-05-06 16:17 | 32.13401 | -80.95276 | 35129 ft | 446 kts | 15° |
| 2026-05-06 16:17 | 32.18972 | -80.92147 | 35153 ft | 446 kts | 15° |
| 2026-05-06 16:18 | 32.24577 | -80.89000 | 35162 ft | 446 kts | 15° |
| 2026-05-06 16:18 | 32.30180 | -80.85848 | 35166 ft | 446 kts | 15° |
| 2026-05-06 16:19 | 32.34837 | -80.83231 | 35155 ft | 446 kts | 15° |
| 2026-05-06 16:19 | 32.40443 | -80.80083 | 35153 ft | 446 kts | 15° |
| 2026-05-06 16:20 | 32.46046 | -80.76928 | 35153 ft | 446 kts | 15° |
| 2026-05-06 16:20 | 32.51651 | -80.73767 | 35151 ft | 446 kts | 15° |
| 2026-05-06 16:21 | 32.57245 | -80.70599 | 35155 ft | 446 kts | 15° |
| 2026-05-06 16:21 | 32.62837 | -80.67417 | 35148 ft | 446 kts | 15° |
| 2026-05-06 16:22 | 32.68444 | -80.64233 | 35147 ft | 446 kts | 15° |
| 2026-05-06 16:22 | 32.74006 | -80.61051 | 35153 ft | 446 kts | 16° |
| 2026-05-06 16:23 | 32.79573 | -80.57750 | 35157 ft | 447 kts | 17° |
| 2026-05-06 16:23 | 32.85125 | -80.54408 | 35161 ft | 447 kts | 17° |
| 2026-05-06 16:24 | 32.90681 | -80.51086 | 35164 ft | 446 kts | 17° |
| 2026-05-06 16:24 | 32.96238 | -80.47786 | 35158 ft | 446 kts | 17° |
| 2026-05-06 16:25 | 33.01791 | -80.44486 | 35139 ft | 446 kts | 17° |
| 2026-05-06 16:25 | 33.07299 | -80.41192 | 35123 ft | 446 kts | 17° |
| 2026-05-06 16:26 | 33.12837 | -80.37867 | 35128 ft | 445 kts | 17° |
| 2026-05-06 16:26 | 33.18376 | -80.34551 | 35123 ft | 445 kts | 17° |
| 2026-05-06 16:27 | 33.23913 | -80.31239 | 35125 ft | 445 kts | 17° |
| 2026-05-06 16:27 | 33.29444 | -80.27906 | 35129 ft | 445 kts | 17° |
| 2026-05-06 16:28 | 33.34956 | -80.24576 | 35139 ft | 443 kts | 16° |
| 2026-05-06 16:28 | 33.40447 | -80.21270 | 35135 ft | 441 kts | 16° |
| 2026-05-06 16:29 | 33.45930 | -80.17968 | 35144 ft | 441 kts | 16° |
| 2026-05-06 16:29 | 33.51407 | -80.14660 | 35152 ft | 440 kts | 16° |
| 2026-05-06 16:30 | 33.55955 | -80.11912 | 35146 ft | 440 kts | 16° |
| 2026-05-06 16:30 | 33.62348 | -80.08034 | 35139 ft | 440 kts | 16° |
| 2026-05-06 16:31 | 33.67815 | -80.04719 | 35136 ft | 440 kts | 16° |
| 2026-05-06 16:31 | 33.73280 | -80.01402 | 35130 ft | 440 kts | 17° |
| 2026-05-06 16:32 | 33.78742 | -79.98075 | 35135 ft | 440 kts | 17° |
| 2026-05-06 16:32 | 33.84165 | -79.94760 | 35127 ft | 440 kts | 17° |
| 2026-05-06 16:33 | 33.89630 | -79.91431 | 35127 ft | 440 kts | 17° |
| 2026-05-06 16:34 | 33.97820 | -79.86427 | 35114 ft | 440 kts | 17° |
| 2026-05-06 16:34 | 34.03272 | -79.83085 | 35122 ft | 440 kts | 17° |
| 2026-05-06 16:35 | 34.08728 | -79.79732 | 35123 ft | 439 kts | 17° |
| 2026-05-06 16:35 | 34.14142 | -79.76406 | 35123 ft | 439 kts | 17° |
| 2026-05-06 16:36 | 34.19574 | -79.73062 | 35124 ft | 438 kts | 17° |
| 2026-05-06 16:36 | 34.25006 | -79.69716 | 35131 ft | 437 kts | 17° |
| 2026-05-06 16:37 | 34.30430 | -79.66373 | 35125 ft | 437 kts | 17° |
| 2026-05-06 16:37 | 34.35840 | -79.63033 | 35122 ft | 436 kts | 17° |
| 2026-05-06 16:38 | 34.41199 | -79.59715 | 35113 ft | 435 kts | 17° |
| 2026-05-06 16:38 | 34.46591 | -79.56372 | 35107 ft | 435 kts | 17° |
| 2026-05-06 16:39 | 34.51970 | -79.53032 | 35100 ft | 434 kts | 17° |
| 2026-05-06 16:39 | 34.57340 | -79.49666 | 35103 ft | 435 kts | 18° |
| 2026-05-06 16:40 | 34.62647 | -79.46115 | 35100 ft | 436 kts | 19° |
| 2026-05-06 16:40 | 34.67922 | -79.42492 | 35109 ft | 435 kts | 19° |
| 2026-05-06 16:41 | 34.73198 | -79.38893 | 35104 ft | 434 kts | 19° |
| 2026-05-06 16:41 | 34.78484 | -79.35313 | 35109 ft | 434 kts | 19° |
| 2026-05-06 16:42 | 34.83759 | -79.31751 | 35110 ft | 434 kts | 19° |
| 2026-05-06 16:42 | 34.89040 | -79.28182 | 35103 ft | 434 kts | 19° |
| 2026-05-06 16:43 | 34.94275 | -79.24627 | 35087 ft | 433 kts | 19° |
| 2026-05-06 16:43 | 34.99545 | -79.21035 | 35085 ft | 433 kts | 20° |
| 2026-05-06 16:44 | 35.04808 | -79.17440 | 35073 ft | 433 kts | 20° |
| 2026-05-06 16:44 | 35.10065 | -79.13854 | 35077 ft | 432 kts | 20° |
| 2026-05-06 16:45 | 35.15320 | -79.10264 | 35110 ft | 433 kts | 20° |
| 2026-05-06 16:45 | 35.17939 | -79.08470 | 35431 ft | 431 kts | 20° |
| 2026-05-06 16:45 | 35.20555 | -79.06675 | 35746 ft | 430 kts | 20° |
| 2026-05-06 16:45 | 35.23162 | -79.04886 | 36054 ft | 429 kts | 19° |
| 2026-05-06 16:46 | 35.25765 | -79.03101 | 36316 ft | 429 kts | 19° |
| 2026-05-06 16:46 | 35.28366 | -79.01317 | 36591 ft | 428 kts | 19° |
| 2026-05-06 16:46 | 35.30964 | -78.99531 | 36847 ft | 428 kts | 19° |
| 2026-05-06 16:46 | 35.33529 | -78.97767 | 37015 ft | 428 kts | 19° |
| 2026-05-06 16:47 | 35.36127 | -78.95979 | 37059 ft | 428 kts | 19° |
| 2026-05-06 16:47 | 35.41313 | -78.92403 | 37061 ft | 427 kts | 20° |
| 2026-05-06 16:48 | 35.46505 | -78.88830 | 37063 ft | 428 kts | 19° |
| 2026-05-06 16:48 | 35.51692 | -78.85250 | 37063 ft | 427 kts | 20° |
| 2026-05-06 16:49 | 35.56872 | -78.81663 | 37061 ft | 428 kts | 20° |
| 2026-05-06 16:49 | 35.61969 | -78.78131 | 37059 ft | 428 kts | 20° |
| 2026-05-06 16:50 | 35.67159 | -78.74528 | 37060 ft | 429 kts | 20° |
| 2026-05-06 16:50 | 35.72357 | -78.70920 | 37069 ft | 429 kts | 20° |
| 2026-05-06 16:51 | 35.77553 | -78.67302 | 37084 ft | 429 kts | 20° |
| 2026-05-06 16:51 | 35.82752 | -78.63674 | 37086 ft | 429 kts | 20° |
| 2026-05-06 16:52 | 35.87943 | -78.60053 | 37079 ft | 429 kts | 20° |
| 2026-05-06 16:52 | 35.93102 | -78.56440 | 37073 ft | 428 kts | 21° |
| 2026-05-06 16:53 | 35.98286 | -78.52809 | 37080 ft | 428 kts | 21° |
| 2026-05-06 16:53 | 36.03467 | -78.49182 | 37088 ft | 428 kts | 21° |
| 2026-05-06 16:54 | 36.08646 | -78.45542 | 37092 ft | 428 kts | 21° |
| 2026-05-06 16:54 | 36.13819 | -78.41903 | 37089 ft | 428 kts | 21° |
| 2026-05-06 16:55 | 36.18995 | -78.38253 | 37086 ft | 428 kts | 21° |
| 2026-05-06 16:55 | 36.24175 | -78.34592 | 37050 ft | 428 kts | 21° |
| 2026-05-06 16:56 | 36.29351 | -78.30938 | 37048 ft | 429 kts | 21° |
| 2026-05-06 16:56 | 36.34494 | -78.27298 | 37052 ft | 428 kts | 21° |
| 2026-05-06 16:57 | 36.39437 | -78.23045 | 37043 ft | 442 kts | 36° |
| 2026-05-06 16:57 | 36.43893 | -78.17786 | 37053 ft | 441 kts | 35° |
| 2026-05-06 16:58 | 36.48355 | -78.12549 | 37061 ft | 442 kts | 36° |
| 2026-05-06 16:58 | 36.52826 | -78.07296 | 37083 ft | 443 kts | 36° |
| 2026-05-06 16:59 | 36.57309 | -78.02017 | 37094 ft | 443 kts | 36° |
| 2026-05-06 16:59 | 36.61775 | -77.96737 | 37100 ft | 443 kts | 36° |
| 2026-05-06 17:00 | 36.66243 | -77.91444 | 37092 ft | 443 kts | 36° |
| 2026-05-06 17:00 | 36.70682 | -77.86184 | 37045 ft | 443 kts | 37° |
| 2026-05-06 17:01 | 36.75158 | -77.80875 | 37040 ft | 444 kts | 37° |
| 2026-05-06 17:01 | 36.79636 | -77.75576 | 37014 ft | 443 kts | 37° |
| 2026-05-06 17:02 | 36.84105 | -77.70256 | 37018 ft | 444 kts | 37° |
| 2026-05-06 17:02 | 36.88571 | -77.64922 | 37011 ft | 445 kts | 37° |
| 2026-05-06 17:03 | 36.93047 | -77.59576 | 37003 ft | 445 kts | 37° |
| 2026-05-06 17:03 | 36.97542 | -77.54210 | 36991 ft | 447 kts | 37° |
| 2026-05-06 17:04 | 37.02039 | -77.48827 | 36999 ft | 447 kts | 37° |
| 2026-05-06 17:04 | 37.06527 | -77.43436 | 36986 ft | 447 kts | 38° |
| 2026-05-06 17:05 | 37.10994 | -77.38065 | 36991 ft | 448 kts | 38° |
| 2026-05-06 17:05 | 37.15504 | -77.32646 | 36986 ft | 449 kts | 38° |
| 2026-05-06 17:06 | 37.20017 | -77.27218 | 36992 ft | 450 kts | 38° |
| 2026-05-06 17:06 | 37.24531 | -77.21763 | 36985 ft | 451 kts | 38° |
| 2026-05-06 17:07 | 37.29047 | -77.16296 | 36977 ft | 452 kts | 38° |
| 2026-05-06 17:07 | 37.32839 | -77.11699 | 36973 ft | 452 kts | 38° |
| 2026-05-06 17:08 | 37.37337 | -77.06232 | 36981 ft | 453 kts | 38° |
| 2026-05-06 17:08 | 37.41874 | -77.00707 | 36976 ft | 454 kts | 38° |
| 2026-05-06 17:09 | 37.46559 | -76.95441 | 36981 ft | 447 kts | 28° |
| 2026-05-06 17:09 | 37.51935 | -76.91667 | 36972 ft | 442 kts | 22° |
| 2026-05-06 17:10 | 37.57390 | -76.88053 | 36977 ft | 443 kts | 22° |
| 2026-05-06 17:10 | 37.62855 | -76.84410 | 36978 ft | 445 kts | 22° |
| 2026-05-06 17:11 | 37.68340 | -76.80745 | 36985 ft | 445 kts | 22° |
| 2026-05-06 17:11 | 37.73787 | -76.77110 | 36976 ft | 446 kts | 22° |
| 2026-05-06 17:12 | 37.79312 | -76.73424 | 36977 ft | 447 kts | 22° |
| 2026-05-06 17:12 | 37.84773 | -76.69763 | 36970 ft | 447 kts | 22° |
| 2026-05-06 17:13 | 37.90288 | -76.66094 | 36971 ft | 447 kts | 21° |
| 2026-05-06 17:13 | 37.95851 | -76.62579 | 36960 ft | 447 kts | 20° |
| 2026-05-06 17:14 | 38.01436 | -76.59098 | 36970 ft | 447 kts | 20° |
| 2026-05-06 17:14 | 38.07012 | -76.55582 | 36967 ft | 448 kts | 20° |
| 2026-05-06 17:15 | 38.12595 | -76.52025 | 36974 ft | 449 kts | 21° |
| 2026-05-06 17:15 | 38.18180 | -76.48437 | 36970 ft | 450 kts | 20° |
| 2026-05-06 17:16 | 38.23781 | -76.44864 | 36948 ft | 451 kts | 20° |
| 2026-05-06 17:16 | 38.29351 | -76.41157 | 36936 ft | 456 kts | 27° |
| 2026-05-06 17:17 | 38.34471 | -76.36276 | 36944 ft | 461 kts | 32° |
| 2026-05-06 17:17 | 38.39578 | -76.31295 | 36940 ft | 462 kts | 31° |
| 2026-05-06 17:18 | 38.44653 | -76.26334 | 36942 ft | 463 kts | 31° |
| 2026-05-06 17:18 | 38.49767 | -76.21321 | 36939 ft | 464 kts | 31° |
| 2026-05-06 17:19 | 38.54882 | -76.16286 | 36945 ft | 464 kts | 31° |
| 2026-05-06 17:19 | 38.60009 | -76.11236 | 36745 ft | 466 kts | 31° |
| 2026-05-06 17:19 | 38.62599 | -76.08685 | 35757 ft | 475 kts | 31° |
| 2026-05-06 17:20 | 38.65253 | -76.06117 | 34896 ft | 480 kts | 30° |
| 2026-05-06 17:20 | 38.67959 | -76.03578 | 34084 ft | 482 kts | 30° |
| 2026-05-06 17:20 | 38.70655 | -76.01092 | 33263 ft | 484 kts | 30° |
| 2026-05-06 17:20 | 38.73392 | -75.98577 | 32434 ft | 485 kts | 30° |
| 2026-05-06 17:21 | 38.76132 | -75.96045 | 31509 ft | 485 kts | 30° |
| 2026-05-06 17:21 | 38.78861 | -75.93507 | 30484 ft | 486 kts | 31° |
| 2026-05-06 17:21 | 38.81595 | -75.90951 | 29417 ft | 486 kts | 31° |
| 2026-05-06 17:21 | 38.84303 | -75.88406 | 29016 ft | 477 kts | 31° |
| 2026-05-06 17:22 | 38.86966 | -75.85892 | 28433 ft | 473 kts | 31° |
| 2026-05-06 17:22 | 38.89600 | -75.83402 | 27892 ft | 467 kts | 31° |
| 2026-05-06 17:22 | 38.92207 | -75.80937 | 27344 ft | 462 kts | 31° |
| 2026-05-06 17:22 | 38.94788 | -75.78501 | 26800 ft | 458 kts | 31° |
| 2026-05-06 17:23 | 38.97346 | -75.76090 | 26621 ft | 455 kts | 31° |
| 2026-05-06 17:23 | 38.99907 | -75.73679 | 26397 ft | 458 kts | 31° |
| 2026-05-06 17:23 | 39.02491 | -75.71244 | 26170 ft | 461 kts | 31° |
| 2026-05-06 17:23 | 39.05071 | -75.68804 | 25939 ft | 461 kts | 31° |
| 2026-05-06 17:24 | 39.07658 | -75.66356 | 25699 ft | 461 kts | 31° |
| 2026-05-06 17:24 | 39.10237 | -75.63913 | 25467 ft | 461 kts | 32° |
| 2026-05-06 17:24 | 39.12811 | -75.61464 | 25237 ft | 460 kts | 32° |
| 2026-05-06 17:24 | 39.15384 | -75.59012 | 25009 ft | 460 kts | 32° |
| 2026-05-06 17:25 | 39.17921 | -75.56595 | 24780 ft | 459 kts | 32° |
| 2026-05-06 17:25 | 39.20492 | -75.54147 | 24553 ft | 459 kts | 32° |
| 2026-05-06 17:25 | 39.23057 | -75.51705 | 24316 ft | 458 kts | 32° |
| 2026-05-06 17:25 | 39.25640 | -75.49299 | 24085 ft | 457 kts | 31° |
| 2026-05-06 17:26 | 39.28256 | -75.46956 | 23861 ft | 456 kts | 30° |
| 2026-05-06 17:26 | 39.30879 | -75.44661 | 23631 ft | 455 kts | 29° |
| 2026-05-06 17:26 | 39.33508 | -75.42378 | 23396 ft | 455 kts | 29° |
| 2026-05-06 17:26 | 39.36124 | -75.40100 | 23158 ft | 454 kts | 30° |
| 2026-05-06 17:27 | 39.38735 | -75.37806 | 22950 ft | 453 kts | 30° |
| 2026-05-06 17:27 | 39.41331 | -75.35502 | 22715 ft | 452 kts | 30° |
| 2026-05-06 17:27 | 39.43911 | -75.33199 | 22495 ft | 451 kts | 30° |
| 2026-05-06 17:27 | 39.46489 | -75.30889 | 22263 ft | 449 kts | 30° |
| 2026-05-06 17:28 | 39.49052 | -75.28586 | 22041 ft | 448 kts | 30° |
| 2026-05-06 17:28 | 39.51614 | -75.26284 | 21776 ft | 448 kts | 30° |
| 2026-05-06 17:28 | 39.54129 | -75.23983 | 21199 ft | 446 kts | 31° |
| 2026-05-06 17:28 | 39.56637 | -75.21639 | 20743 ft | 442 kts | 31° |
| 2026-05-06 17:29 | 39.59116 | -75.19294 | 20258 ft | 439 kts | 31° |
| 2026-05-06 17:29 | 39.61576 | -75.16961 | 19778 ft | 436 kts | 31° |
| 2026-05-06 17:29 | 39.64018 | -75.14642 | 19292 ft | 434 kts | 31° |
| 2026-05-06 17:29 | 39.66449 | -75.12341 | 18824 ft | 431 kts | 31° |
| 2026-05-06 17:30 | 39.68874 | -75.10080 | 18359 ft | 428 kts | 30° |
| 2026-05-06 17:30 | 39.71322 | -75.07907 | 17843 ft | 424 kts | 28° |
| 2026-05-06 17:30 | 39.73785 | -75.05804 | 17373 ft | 425 kts | 27° |
| 2026-05-06 17:30 | 39.76279 | -75.03717 | 17037 ft | 428 kts | 27° |
| 2026-05-06 17:31 | 39.78786 | -75.01622 | 16580 ft | 427 kts | 27° |
| 2026-05-06 17:31 | 39.81270 | -74.99524 | 16131 ft | 424 kts | 28° |
| 2026-05-06 17:31 | 39.83728 | -74.97420 | 15666 ft | 421 kts | 28° |